createdAt,value
2022-08-08T00:00:53.738Z,19.90
2022-08-08T00:03:28.212Z,19.80
2022-08-08T00:06:48.872Z,19.80
2022-08-08T00:09:17.009Z,19.80
2022-08-08T00:12:07.750Z,19.70
2022-08-08T00:14:58.950Z,19.60
2022-08-08T00:18:02.508Z,19.50
2022-08-08T00:20:39.314Z,19.40
2022-08-08T00:23:20.647Z,19.40
2022-08-08T00:25:54.545Z,19.40
2022-08-08T00:28:54.704Z,19.20
2022-08-08T00:32:16.286Z,19.10
2022-08-08T00:35:04.995Z,19.10
2022-08-08T00:37:47.558Z,19.10
2022-08-08T00:41:12.291Z,19.10
2022-08-08T00:43:46.007Z,19.00
2022-08-08T00:46:58.427Z,19.00
2022-08-08T00:49:37.514Z,18.90
2022-08-08T00:52:19.989Z,18.80
2022-08-08T00:55:10.742Z,18.80
2022-08-08T00:58:05.489Z,18.60
2022-08-08T01:00:52.719Z,18.60
2022-08-08T01:04:05.189Z,18.60
2022-08-08T01:07:15.502Z,18.50
2022-08-08T01:10:21.829Z,18.40
2022-08-08T01:13:14.933Z,18.40
2022-08-08T01:15:57.316Z,18.20
2022-08-08T01:18:53.017Z,18.10
2022-08-08T01:22:09.860Z,18.00
2022-08-08T01:24:50.793Z,17.90
2022-08-08T01:27:44.023Z,17.90
2022-08-08T01:30:39.325Z,17.90
2022-08-08T01:34:00.078Z,17.80
2022-08-08T01:36:57.521Z,17.80
2022-08-08T01:39:41.766Z,17.80
2022-08-08T01:42:35.530Z,17.70
2022-08-08T01:45:22.690Z,17.70
2022-08-08T01:48:16.781Z,17.60
2022-08-08T01:51:17.172Z,17.60
2022-08-08T01:55:25.560Z,17.50
2022-08-08T01:57:10.703Z,17.50
2022-08-08T02:00:03.857Z,17.40
2022-08-08T02:02:43.882Z,17.40
2022-08-08T02:05:23.443Z,17.30
2022-08-08T02:08:12.157Z,17.30
2022-08-08T02:11:23.395Z,17.20
2022-08-08T02:14:24.616Z,17.10
2022-08-08T02:16:54.398Z,17.10
2022-08-08T02:20:08.026Z,17.00
2022-08-08T02:22:55.353Z,17.00
2022-08-08T02:25:50.150Z,17.00
2022-08-08T02:28:35.099Z,16.90
2022-08-08T02:31:58.848Z,16.90
2022-08-08T02:35:07.399Z,16.90
2022-08-08T02:38:00.373Z,16.80
2022-08-08T02:40:50.693Z,16.70
2022-08-08T02:44:44.885Z,16.70
2022-08-08T02:46:47.315Z,16.60
2022-08-08T02:49:47.954Z,16.60
2022-08-08T02:52:34.912Z,16.60
2022-08-08T02:55:31.791Z,16.60
2022-08-08T02:58:16.125Z,16.50
2022-08-08T03:01:16.843Z,16.40
2022-08-08T03:05:03.590Z,16.40
2022-08-08T03:07:41.457Z,16.30
2022-08-08T03:10:53.807Z,16.20
2022-08-08T03:13:34.041Z,16.20
2022-08-08T03:16:35.969Z,16.10
2022-08-08T03:19:51.544Z,16.10
2022-08-08T03:22:38.084Z,16.10
2022-08-08T03:25:14.771Z,16.10
2022-08-08T03:27:56.607Z,16.00
2022-08-08T03:30:24.945Z,16.00
2022-08-08T03:33:55.339Z,16.00
2022-08-08T03:35:58.914Z,15.90
2022-08-08T03:38:57.328Z,15.80
2022-08-08T03:42:12.420Z,15.80
2022-08-08T03:44:00.450Z,15.70
2022-08-08T03:46:32.740Z,15.70
2022-08-08T03:49:32.869Z,15.70
2022-08-08T03:51:53.113Z,15.70
2022-08-08T03:54:52.566Z,15.70
2022-08-08T03:58:35.041Z,15.60
2022-08-08T04:00:11.829Z,15.60
2022-08-08T04:02:51.792Z,15.60
2022-08-08T04:05:28.234Z,15.60
2022-08-08T04:07:58.044Z,15.50
2022-08-08T04:10:32.159Z,15.40
2022-08-08T04:13:00.617Z,15.20
2022-08-08T04:15:38.854Z,15.20
2022-08-08T04:18:06.775Z,15.20
2022-08-08T04:20:43.316Z,15.10
2022-08-08T04:23:10.129Z,15.10
2022-08-08T04:25:38.476Z,15.00
2022-08-08T04:28:35.104Z,15.00
2022-08-08T04:30:55.013Z,15.00
2022-08-08T04:33:22.385Z,15.00
2022-08-08T04:35:51.103Z,15.00
2022-08-08T04:38:21.614Z,15.00
2022-08-08T04:40:51.788Z,15.00
2022-08-08T04:43:31.627Z,15.00
2022-08-08T04:46:09.721Z,14.90
2022-08-08T04:48:36.618Z,14.90
2022-08-08T04:51:03.424Z,14.80
2022-08-08T04:54:27.487Z,14.80
2022-08-08T04:56:18.962Z,14.80
2022-08-08T04:58:46.057Z,14.90
2022-08-08T05:01:13.125Z,14.80
2022-08-08T05:04:09.153Z,14.80
2022-08-08T05:06:29.310Z,14.70
2022-08-08T05:08:56.450Z,14.60
2022-08-08T05:11:38.784Z,14.50
2022-08-08T05:14:08.391Z,14.50
2022-08-08T05:16:54.581Z,14.50
2022-08-08T05:20:12.117Z,14.50
2022-08-08T05:22:10.388Z,14.60
2022-08-08T05:24:38.442Z,14.60
2022-08-08T05:27:06.473Z,14.70
2022-08-08T05:29:36.079Z,14.70
2022-08-08T05:32:07.210Z,14.80
2022-08-08T05:34:49.468Z,14.80
2022-08-08T05:37:23.779Z,14.80
2022-08-08T05:40:06.535Z,14.80
2022-08-08T05:42:44.921Z,14.80
2022-08-08T05:45:30.748Z,14.80
2022-08-08T05:48:01.486Z,14.70
2022-08-08T05:50:36.198Z,14.70
2022-08-08T05:53:54.060Z,14.80
2022-08-08T05:56:11.183Z,14.80
2022-08-08T05:58:54.082Z,14.90
2022-08-08T06:01:55.590Z,14.90
2022-08-08T06:04:23.320Z,15.00
2022-08-08T06:07:00.537Z,15.10
2022-08-08T06:09:58.448Z,15.10
2022-08-08T06:12:30.183Z,15.10
2022-08-08T06:15:03.268Z,15.20
2022-08-08T06:17:51.269Z,15.20
2022-08-08T06:20:20.746Z,15.30
2022-08-08T06:22:49.479Z,15.30
2022-08-08T06:25:18.281Z,15.40
2022-08-08T06:27:51.412Z,15.40
2022-08-08T06:30:26.465Z,15.40
2022-08-08T06:33:01.273Z,15.50
2022-08-08T06:36:05.990Z,15.60
2022-08-08T06:38:27.487Z,15.60
2022-08-08T06:41:01.990Z,15.70
2022-08-08T06:43:33.974Z,15.70
2022-08-08T06:46:02.448Z,15.80
2022-08-08T06:48:30.386Z,15.80
2022-08-08T06:50:58.316Z,15.90
2022-08-08T06:53:26.206Z,15.90
2022-08-08T06:56:11.597Z,16.00
2022-08-08T06:58:44.062Z,16.00
2022-08-08T07:01:11.613Z,16.10
2022-08-08T07:04:39.077Z,16.20
2022-08-08T07:06:56.701Z,16.30
2022-08-08T07:09:59.647Z,16.30
2022-08-08T07:12:39.923Z,16.40
2022-08-08T07:15:32.760Z,16.50
2022-08-08T07:18:35.068Z,16.60
2022-08-08T07:20:55.208Z,16.70
2022-08-08T07:23:24.693Z,16.80
2022-08-08T07:25:54.692Z,16.90
2022-08-08T07:28:24.381Z,17.00
2022-08-08T07:30:59.351Z,17.00
2022-08-08T07:33:26.315Z,17.10
2022-08-08T07:35:54.493Z,17.20
2022-08-08T07:38:25.555Z,17.20
2022-08-08T07:40:58.887Z,17.40
2022-08-08T07:43:37.068Z,17.40
2022-08-08T07:46:23.481Z,17.40
2022-08-08T07:48:53.385Z,17.40
2022-08-08T07:51:24.404Z,17.50
2022-08-08T07:54:35.798Z,17.60
2022-08-08T07:57:12.203Z,17.60
2022-08-08T08:00:13.435Z,17.60
2022-08-08T08:03:08.647Z,17.80
2022-08-08T08:06:03.681Z,17.80
2022-08-08T08:08:52.271Z,17.90
2022-08-08T08:11:21.891Z,17.90
2022-08-08T08:14:09.823Z,18.00
2022-08-08T08:16:41.401Z,18.10
2022-08-08T08:19:10.670Z,18.30
2022-08-08T08:21:52.344Z,18.30
2022-08-08T08:24:30.714Z,18.40
2022-08-08T08:27:00.083Z,18.60
2022-08-08T08:29:29.846Z,18.70
2022-08-08T08:31:59.216Z,18.70
2022-08-08T08:34:32.542Z,18.80
2022-08-08T08:37:03.457Z,19.00
2022-08-08T08:39:59.427Z,19.20
2022-08-08T08:42:31.902Z,19.50
2022-08-08T08:45:20.797Z,19.70
2022-08-08T08:47:54.265Z,19.80
2022-08-08T08:50:32.536Z,20.10
2022-08-08T08:53:27.916Z,20.20
2022-08-08T08:56:02.452Z,20.50
2022-08-08T08:58:38.060Z,20.60
2022-08-08T09:01:10.474Z,20.70
2022-08-08T09:03:50.513Z,20.80
2022-08-08T09:06:28.495Z,20.90
2022-08-08T09:09:04.340Z,21.10
2022-08-08T09:11:47.679Z,21.20
2022-08-08T09:14:25.945Z,21.40
2022-08-08T09:16:53.836Z,21.50
2022-08-08T09:21:57.480Z,21.60
2022-08-08T09:22:08.141Z,21.60
2022-08-08T09:24:38.402Z,21.70
2022-08-08T09:27:20.249Z,21.60
2022-08-08T09:30:10.665Z,21.70
2022-08-08T09:33:12.509Z,21.70
2022-08-08T09:35:37.416Z,21.70
2022-08-08T09:38:05.934Z,21.80
2022-08-08T09:40:55.657Z,21.90
2022-08-08T09:44:05.155Z,22.00
2022-08-08T09:46:25.822Z,21.90
2022-08-08T09:49:18.553Z,22.00
2022-08-08T09:52:06.816Z,22.10
2022-08-08T09:54:45.040Z,22.20
2022-08-08T09:57:19.403Z,22.30
2022-08-08T10:00:34.087Z,22.40
2022-08-08T10:02:42.008Z,22.40
2022-08-08T10:05:22.819Z,22.50
2022-08-08T10:07:52.147Z,22.60
2022-08-08T10:10:38.635Z,22.70
2022-08-08T10:13:25.933Z,22.80
2022-08-08T10:16:02.117Z,22.80
2022-08-08T10:18:35.914Z,22.90
2022-08-08T10:21:22.837Z,23.00
2022-08-08T10:23:58.866Z,23.00
2022-08-08T10:26:51.945Z,23.10
2022-08-08T10:29:59.473Z,23.10
2022-08-08T10:32:37.794Z,23.20
2022-08-08T10:36:07.076Z,23.20
2022-08-08T10:38:08.239Z,23.20
2022-08-08T10:40:38.307Z,23.20
2022-08-08T10:43:10.097Z,23.10
2022-08-08T10:45:56.002Z,23.20
2022-08-08T10:48:56.727Z,23.40
2022-08-08T10:51:31.094Z,23.40
2022-08-08T10:54:08.155Z,23.60
2022-08-08T10:56:43.316Z,23.50
2022-08-08T10:59:12.317Z,23.50
2022-08-08T11:01:46.438Z,23.40
2022-08-08T11:04:29.711Z,23.50
2022-08-08T11:07:00.679Z,23.60
2022-08-08T11:09:27.575Z,23.70
2022-08-08T11:12:05.322Z,23.80
2022-08-08T11:14:57.331Z,23.80
2022-08-08T11:18:00.748Z,23.80
2022-08-08T11:20:25.053Z,23.90
2022-08-08T11:22:56.944Z,23.90
2022-08-08T11:25:52.124Z,24.00
2022-08-08T11:28:15.346Z,24.10
2022-08-08T11:30:50.458Z,24.10
2022-08-08T11:33:49.593Z,24.10
2022-08-08T11:36:13.373Z,24.20
2022-08-08T11:38:54.234Z,24.20
2022-08-08T11:41:24.641Z,24.30
2022-08-08T11:43:54.554Z,24.30
2022-08-08T11:46:26.492Z,24.40
2022-08-08T11:48:55.397Z,24.50
2022-08-08T11:51:37.993Z,24.60
2022-08-08T11:54:27.353Z,24.70
2022-08-08T11:56:56.495Z,24.70
2022-08-08T12:00:00.422Z,24.70
2022-08-08T12:02:32.390Z,24.90
2022-08-08T12:05:12.295Z,25.00
2022-08-08T12:07:58.667Z,25.00
2022-08-08T12:10:28.051Z,25.00
2022-08-08T12:13:09.452Z,25.10
2022-08-08T12:15:42.006Z,25.30
2022-08-08T12:18:28.539Z,25.40
2022-08-08T12:20:58.879Z,25.50
2022-08-08T12:23:43.463Z,25.60
2022-08-08T12:26:28.041Z,25.60
2022-08-08T12:29:21.353Z,25.90
2022-08-08T12:32:02.515Z,26.00
2022-08-08T12:34:41.943Z,26.10
2022-08-08T12:37:41.010Z,26.00
2022-08-08T12:40:14.273Z,25.90
2022-08-08T12:42:52.508Z,26.00
2022-08-08T12:45:53.899Z,26.10
2022-08-08T12:48:18.181Z,26.30
2022-08-08T12:50:57.981Z,26.40
2022-08-08T12:53:35.234Z,26.40
2022-08-08T12:56:19.281Z,26.40
2022-08-08T12:58:52.199Z,26.60
2022-08-08T13:01:24.686Z,26.70
2022-08-08T13:04:18.745Z,26.70
2022-08-08T13:06:58.841Z,26.80
2022-08-08T13:09:33.029Z,26.80
2022-08-08T13:12:19.558Z,26.80
2022-08-08T13:14:52.897Z,26.70
2022-08-08T13:18:09.229Z,27.00
2022-08-08T13:20:18.583Z,27.10
2022-08-08T13:22:46.282Z,27.30
2022-08-08T13:25:21.204Z,27.30
2022-08-08T13:28:00.544Z,27.20
2022-08-08T13:30:28.636Z,27.20
2022-08-08T13:33:01.388Z,27.30
2022-08-08T13:35:38.398Z,27.50
2022-08-08T13:38:08.696Z,27.50
2022-08-08T13:40:41.337Z,27.60
2022-08-08T13:43:12.143Z,27.70
2022-08-08T13:45:39.155Z,27.70
2022-08-08T13:48:25.456Z,27.70
2022-08-08T13:50:57.670Z,27.70
2022-08-08T13:53:36.540Z,27.90
2022-08-08T13:56:11.359Z,28.10
2022-08-08T13:58:56.097Z,28.20
2022-08-08T14:01:42.057Z,28.20
2022-08-08T14:04:24.428Z,28.20
2022-08-08T14:07:00.431Z,28.30
2022-08-08T14:10:05.381Z,28.40
2022-08-08T14:12:19.442Z,28.40
2022-08-08T14:14:47.152Z,28.50
2022-08-08T14:17:22.100Z,28.70
2022-08-08T14:20:06.366Z,28.80
2022-08-08T14:22:38.307Z,28.90
2022-08-08T14:25:15.380Z,28.80
2022-08-08T14:27:59.439Z,28.90
2022-08-08T14:30:33.726Z,29.00
2022-08-08T14:33:00.787Z,29.10
2022-08-08T14:35:35.704Z,29.20
2022-08-08T14:38:34.851Z,29.40
2022-08-08T14:40:59.348Z,29.50
2022-08-08T14:44:02.079Z,29.60
2022-08-08T14:46:16.948Z,29.70
2022-08-08T14:48:52.313Z,29.70
2022-08-08T14:51:31.185Z,29.50
2022-08-08T14:54:13.990Z,29.50
2022-08-08T14:56:55.411Z,29.50
2022-08-08T14:59:43.533Z,29.40
2022-08-08T15:02:10.806Z,29.50
2022-08-08T15:04:43.086Z,29.40
2022-08-08T15:07:22.505Z,29.50
2022-08-08T15:09:49.962Z,29.90
2022-08-08T15:12:27.478Z,30.10
2022-08-08T15:14:55.579Z,30.30
2022-08-08T15:17:23.347Z,30.20
2022-08-08T15:19:51.781Z,30.30
2022-08-08T15:22:23.307Z,30.00
2022-08-08T15:24:52.402Z,30.10
2022-08-08T15:28:05.117Z,30.30
2022-08-08T15:30:08.096Z,30.50
2022-08-08T15:32:40.604Z,30.50
2022-08-08T15:35:10.597Z,30.80
2022-08-08T15:37:38.498Z,31.00
2022-08-08T15:40:11.371Z,30.80
2022-08-08T15:42:45.464Z,30.90
2022-08-08T15:45:14.528Z,31.20
2022-08-08T15:48:15.675Z,31.00
2022-08-08T15:50:48.258Z,31.10
2022-08-08T15:53:17.843Z,31.40
2022-08-08T15:55:44.957Z,31.20
2022-08-08T15:58:14.279Z,31.00
2022-08-08T16:00:50.268Z,31.30
2022-08-08T16:03:17.582Z,31.70
2022-08-08T16:06:01.058Z,31.80
2022-08-08T16:08:29.094Z,32.00
2022-08-08T16:13:11.187Z,32.10
2022-08-08T16:13:43.857Z,32.00
2022-08-08T16:16:18.144Z,32.20
2022-08-08T16:18:56.745Z,31.90
2022-08-08T16:21:27.879Z,31.80
2022-08-08T16:23:56.638Z,31.80
2022-08-08T16:26:34.766Z,32.00
2022-08-08T16:29:09.043Z,32.10
2022-08-08T16:31:40.349Z,32.20
2022-08-08T16:34:08.768Z,32.30
2022-08-08T16:36:36.568Z,32.20
2022-08-08T16:39:09.829Z,32.20
2022-08-08T16:41:53.057Z,32.10
2022-08-08T16:44:27.902Z,32.00
2022-08-08T16:47:40.287Z,32.00
2022-08-08T16:50:14.232Z,32.20
2022-08-08T16:55:00.275Z,32.20
2022-08-08T16:55:55.139Z,32.20
2022-08-08T16:58:25.328Z,32.30
2022-08-08T17:00:53.129Z,32.40
2022-08-08T17:03:25.043Z,32.30
2022-08-08T17:06:36.737Z,32.20
2022-08-08T17:08:54.328Z,32.00
2022-08-08T17:11:21.863Z,32.00
2022-08-08T17:14:01.706Z,32.20
2022-08-08T17:16:29.239Z,32.00
2022-08-08T17:18:56.847Z,32.00
2022-08-08T17:21:26.246Z,32.00
2022-08-08T17:23:58.190Z,31.90
2022-08-08T17:26:29.513Z,31.60
2022-08-08T17:28:58.649Z,31.70
2022-08-08T17:31:46.326Z,31.50
2022-08-08T17:34:48.296Z,31.40
2022-08-08T17:37:09.122Z,31.40
2022-08-08T17:40:03.362Z,31.20
2022-08-08T17:42:24.206Z,30.90
2022-08-08T17:44:52.573Z,30.80
2022-08-08T17:47:27.411Z,30.50
2022-08-08T17:50:01.006Z,30.60
2022-08-08T17:52:33.260Z,30.50
2022-08-08T17:55:05.374Z,30.40
2022-08-08T17:57:36.667Z,30.50
2022-08-08T18:00:13.239Z,30.40
2022-08-08T18:02:52.374Z,30.30
2022-08-08T18:05:49.349Z,30.10
2022-08-08T18:08:37.924Z,30.30
2022-08-08T18:11:09.026Z,30.10
2022-08-08T18:13:41.310Z,30.10
2022-08-08T18:16:09.282Z,30.00
2022-08-08T18:18:40.675Z,29.90
2022-08-08T18:21:25.123Z,29.90
2022-08-08T18:23:59.550Z,29.90
2022-08-08T18:26:28.109Z,29.70
2022-08-08T18:28:55.904Z,29.60
2022-08-08T18:31:25.069Z,29.50
2022-08-08T18:34:12.331Z,29.40
2022-08-08T18:36:44.318Z,29.50
2022-08-08T18:39:27.283Z,29.50
2022-08-08T18:42:02.992Z,29.40
2022-08-08T18:44:30.353Z,29.30
2022-08-08T18:47:01.391Z,29.30
2022-08-08T18:49:32.706Z,29.20
2022-08-08T18:52:22.294Z,29.10
2022-08-08T18:54:59.288Z,28.80
2022-08-08T18:57:27.466Z,28.80
2022-08-08T19:00:02.848Z,28.70
2022-08-08T19:02:30.216Z,28.70
2022-08-08T19:04:57.086Z,28.60
2022-08-08T19:07:29.603Z,28.50
2022-08-08T19:10:14.532Z,28.40
2022-08-08T19:12:44.673Z,28.30
2022-08-08T19:15:21.739Z,28.40
2022-08-08T19:18:30.763Z,28.30
2022-08-08T19:20:40.457Z,28.30
2022-08-08T19:23:10.194Z,28.10
2022-08-08T19:26:01.610Z,27.90
2022-08-08T19:28:24.914Z,27.90
2022-08-08T19:31:03.841Z,27.90
2022-08-08T19:33:52.313Z,27.60
2022-08-08T19:36:27.344Z,27.30
2022-08-08T19:38:57.832Z,27.30
2022-08-08T19:41:29.204Z,27.30
2022-08-08T19:44:02.834Z,27.50
2022-08-08T19:46:33.626Z,27.50
2022-08-08T19:49:03.142Z,27.10
2022-08-08T19:51:34.345Z,27.10
2022-08-08T19:54:06.863Z,27.10
2022-08-08T19:56:40.124Z,27.00
2022-08-08T19:59:13.036Z,26.70
2022-08-08T20:02:02.142Z,26.40
2022-08-08T20:04:28.164Z,26.40
2022-08-08T20:06:57.813Z,26.30
2022-08-08T20:09:32.517Z,26.10
2022-08-08T20:12:05.332Z,26.10
2022-08-08T20:14:42.122Z,26.00
2022-08-08T20:17:09.313Z,26.10
2022-08-08T20:19:42.253Z,25.90
2022-08-08T20:22:13.296Z,25.80
2022-08-08T20:24:47.864Z,25.80
2022-08-08T20:27:20.634Z,25.60
2022-08-08T20:29:59.992Z,25.60
2022-08-08T20:32:32.064Z,25.60
2022-08-08T20:35:00.832Z,25.60
2022-08-08T20:37:47.006Z,25.50
2022-08-08T20:40:17.433Z,25.30
2022-08-08T20:42:54.891Z,25.20
2022-08-08T20:45:54.740Z,25.20
2022-08-08T20:48:10.213Z,25.30
2022-08-08T20:50:37.810Z,25.20
2022-08-08T20:53:06.903Z,25.10
2022-08-08T20:55:43.689Z,25.00
2022-08-08T20:58:23.107Z,25.00
2022-08-08T21:00:50.483Z,24.90
2022-08-08T21:03:20.915Z,25.10
2022-08-08T21:05:58.867Z,25.00
2022-08-08T21:08:35.192Z,24.90
2022-08-08T21:11:15.552Z,24.80
2022-08-08T21:13:43.561Z,24.70
2022-08-08T21:16:20.333Z,24.70
2022-08-08T21:18:47.921Z,24.70
2022-08-08T21:21:20.525Z,24.50
2022-08-08T21:24:08.692Z,24.40
2022-08-08T21:26:45.649Z,24.30
2022-08-08T21:29:14.096Z,24.20
2022-08-08T21:31:58.490Z,24.10
2022-08-08T21:34:30.098Z,24.10
2022-08-08T21:36:58.438Z,24.10
2022-08-08T21:39:41.519Z,24.10
2022-08-08T21:42:12.265Z,24.00
2022-08-08T21:44:58.532Z,23.90
2022-08-08T21:48:20.133Z,23.80
2022-08-08T21:50:13.242Z,23.80
2022-08-08T21:54:27.495Z,23.70
2022-08-08T21:56:28.746Z,23.70
2022-08-08T21:58:14.697Z,23.50
2022-08-08T22:00:46.955Z,23.40
2022-08-08T22:03:19.416Z,23.40
2022-08-08T22:05:54.166Z,23.30
2022-08-08T22:08:25.963Z,23.30
2022-08-08T22:11:03.927Z,23.30
2022-08-08T22:13:51.844Z,23.30
2022-08-08T22:16:20.934Z,23.10
2022-08-08T22:18:52.568Z,23.00
2022-08-08T22:21:21.920Z,23.10
2022-08-08T22:23:52.185Z,23.10
2022-08-08T22:26:28.648Z,23.00
2022-08-08T22:29:15.076Z,22.90
2022-08-08T22:31:44.082Z,22.90
2022-08-08T22:34:30.250Z,22.80
2022-08-08T22:36:57.077Z,22.70
2022-08-08T22:39:39.442Z,22.70
2022-08-08T22:42:10.916Z,22.60
2022-08-08T22:44:37.910Z,22.60
2022-08-08T22:47:17.490Z,22.60
2022-08-08T22:49:45.142Z,22.50
2022-08-08T22:52:26.116Z,22.50
2022-08-08T22:55:04.644Z,22.40
2022-08-08T22:57:44.276Z,22.30
2022-08-08T23:00:16.819Z,22.30
2022-08-08T23:02:45.211Z,22.30
2022-08-08T23:05:17.517Z,22.20
2022-08-08T23:07:57.016Z,22.20
2022-08-08T23:10:26.839Z,22.10
2022-08-08T23:12:54.591Z,22.00
2022-08-08T23:16:38.417Z,22.00
2022-08-08T23:18:12.083Z,21.90
2022-08-08T23:20:43.519Z,21.90
2022-08-08T23:23:12.205Z,21.80
2022-08-08T23:25:48.480Z,21.70
2022-08-08T23:28:17.750Z,21.70
2022-08-08T23:30:46.348Z,21.60
2022-08-08T23:33:21.250Z,21.60
2022-08-08T23:36:08.222Z,21.60
2022-08-08T23:38:44.100Z,21.50
2022-08-08T23:41:23.107Z,21.40
2022-08-08T23:43:54.064Z,21.30
2022-08-08T23:49:02.240Z,21.30
2022-08-08T23:49:18.409Z,21.10
2022-08-08T23:52:05.381Z,21.10
2022-08-08T23:54:43.719Z,21.10
2022-08-08T23:57:26.301Z,21.10
